La Salle, Canada
Current Conditions -  °F | °C
As of 5:00 PM on Sunday 21 Dec 2014 (Local Time) from CYWG Reporting Station
Haze Haze  
Wind Chill: -8°   Ceiling: 500
Heat Index: -1°   Visibility: 5mi
Dew Point: -2°   Wind: 18mph
Humidity: 93%   Direction: 170°S
Pressure: 29.61"   Gusts: NA
Location:  49.68°N, 97.27°W
Report Text: CYWG 212300Z 17016KT 5SM BR OVC005 M01/M02 A2961 RMK ST8 CIG RGD SLP039
Loading
Personal Weather Stations






























Interactive Weather Map New forecast layout! Learn more

10-Day Weather Forecast

Advertisements
Track Severe Weather on mobile